createdAt,value
2023-02-01T00:02:16.668Z,6.20
2023-02-01T00:04:43.584Z,6.20
2023-02-01T00:07:12.590Z,6.20
2023-02-01T00:09:40.829Z,6.20
2023-02-01T00:12:07.672Z,6.30
2023-02-01T00:14:39.326Z,6.30
2023-02-01T00:17:07.707Z,6.30
2023-02-01T00:19:35.463Z,6.20
2023-02-01T00:22:02.479Z,6.20
2023-02-01T00:24:29.536Z,6.10
2023-02-01T00:26:56.975Z,6.10
2023-02-01T00:29:23.886Z,6.10
2023-02-01T00:31:52.711Z,6.00
2023-02-01T00:34:20.062Z,6.00
2023-02-01T00:36:47.295Z,6.00
2023-02-01T00:39:14.619Z,6.00
2023-02-01T00:41:41.734Z,6.00
2023-02-01T00:44:08.659Z,5.90
2023-02-01T00:46:35.609Z,5.90
2023-02-01T00:49:02.515Z,5.90
2023-02-01T00:51:30.755Z,5.90
2023-02-01T00:53:58.287Z,5.90
2023-02-01T00:56:25.712Z,5.90
2023-02-01T00:58:52.529Z,5.90
2023-02-01T01:01:27.475Z,5.90
2023-02-01T01:03:59.598Z,5.80
2023-02-01T01:06:28.974Z,5.90
2023-02-01T01:08:58.351Z,5.80
2023-02-01T01:11:31.455Z,5.90
2023-02-01T01:14:00.335Z,5.90
2023-02-01T01:16:29.199Z,5.90
2023-02-01T01:18:56.841Z,5.90
2023-02-01T01:21:23.715Z,5.90
2023-02-01T01:23:50.598Z,5.90
2023-02-01T01:26:20.441Z,5.90
2023-02-01T01:28:09.296Z,6.30
2023-02-01T01:28:47.831Z,5.90
2023-02-01T01:30:37.795Z,6.30
2023-02-01T01:31:16.098Z,5.90
2023-02-01T01:33:06.037Z,6.30
2023-02-01T01:33:44.895Z,5.80
2023-02-01T01:36:13.507Z,5.80
2023-02-01T01:38:43.019Z,5.90
2023-02-01T01:41:15.390Z,5.80
2023-02-01T01:44:05.367Z,5.80
2023-02-01T01:46:41.896Z,5.80
2023-02-01T01:49:39.438Z,5.80
2023-02-01T01:52:07.641Z,5.80
2023-02-01T01:54:39.919Z,5.80
2023-02-01T01:57:12.929Z,5.80
2023-02-01T01:59:43.119Z,5.80
2023-02-01T02:02:11.104Z,5.80
2023-02-01T02:04:38.823Z,5.80
2023-02-01T02:07:10.771Z,5.80
2023-02-01T02:09:38.597Z,5.80
2023-02-01T02:12:06.772Z,5.80
2023-02-01T02:14:35.533Z,5.70
2023-02-01T02:17:33.513Z,5.80
2023-02-01T02:20:03.405Z,5.70
2023-02-01T02:23:04.285Z,5.70
2023-02-01T02:25:51.994Z,5.70
2023-02-01T02:28:37.246Z,5.70
2023-02-01T02:31:34.466Z,5.70
2023-02-01T02:34:34.031Z,5.60
2023-02-01T02:37:09.946Z,5.70
2023-02-01T02:40:00.922Z,5.70
2023-02-01T02:43:06.670Z,5.80
2023-02-01T02:46:07.516Z,5.70
2023-02-01T02:48:48.559Z,5.70
2023-02-01T02:51:54.517Z,5.70
2023-02-01T02:54:47.456Z,5.80
2023-02-01T02:57:40.687Z,5.70
2023-02-01T03:00:32.934Z,5.70
2023-02-01T03:03:19.812Z,5.70
2023-02-01T03:05:51.532Z,5.70
2023-02-01T03:08:22.752Z,5.60
2023-02-01T03:11:14.081Z,5.60
2023-02-01T03:13:50.259Z,5.60
2023-02-01T03:16:31.116Z,5.60
2023-02-01T03:19:27.298Z,5.60
2023-02-01T03:22:02.640Z,5.50
2023-02-01T03:24:44.229Z,5.60
2023-02-01T03:27:34.984Z,5.60
2023-02-01T03:30:24.922Z,5.60
2023-02-01T03:33:00.842Z,5.50
2023-02-01T03:35:36.849Z,5.50
2023-02-01T03:38:24.635Z,5.50
2023-02-01T03:41:32.410Z,5.40
2023-02-01T03:44:20.367Z,5.40
2023-02-01T03:47:04.684Z,5.40
2023-02-01T03:49:54.061Z,5.40
2023-02-01T03:52:29.406Z,5.40
2023-02-01T03:54:57.073Z,5.40
2023-02-01T03:57:30.944Z,5.40
2023-02-01T04:00:11.149Z,5.30
2023-02-01T04:02:40.639Z,5.30
2023-02-01T04:05:07.779Z,5.30
2023-02-01T04:07:34.615Z,5.30
2023-02-01T04:10:01.637Z,5.30
2023-02-01T04:12:28.505Z,5.30
2023-02-01T04:14:55.273Z,5.30
2023-02-01T04:17:22.195Z,5.20
2023-02-01T04:19:49.035Z,5.20
2023-02-01T04:22:18.385Z,5.20
2023-02-01T04:24:45.462Z,5.20
2023-02-01T04:27:12.311Z,5.20
2023-02-01T04:29:39.778Z,5.30
2023-02-01T04:32:06.834Z,5.30
2023-02-01T04:34:33.654Z,5.20
2023-02-01T04:37:00.677Z,5.20
2023-02-01T04:39:27.565Z,5.20
2023-02-01T04:41:54.594Z,5.20
2023-02-01T04:44:21.519Z,5.20
2023-02-01T04:46:48.619Z,5.20
2023-02-01T04:49:15.767Z,5.20
2023-02-01T04:51:42.988Z,5.20
2023-02-01T04:54:12.475Z,5.20
2023-02-01T04:56:39.298Z,5.20
2023-02-01T04:59:06.686Z,5.20
2023-02-01T05:01:33.858Z,5.20
2023-02-01T05:04:00.685Z,5.20
2023-02-01T05:06:27.525Z,5.20
2023-02-01T05:08:54.370Z,5.20
2023-02-01T05:11:39.697Z,5.10
2023-02-01T05:14:06.590Z,5.10
2023-02-01T05:16:33.637Z,5.10
2023-02-01T05:19:00.539Z,5.10
2023-02-01T05:21:27.628Z,5.10
2023-02-01T05:24:12.954Z,5.10
2023-02-01T05:26:41.629Z,5.10
2023-02-01T05:29:10.177Z,5.10
2023-02-01T05:31:37.749Z,5.10
2023-02-01T05:34:05.368Z,5.00
2023-02-01T05:36:32.846Z,5.10
2023-02-01T05:38:59.801Z,5.10
2023-02-01T05:41:26.659Z,5.00
2023-02-01T05:43:53.508Z,5.10
2023-02-01T05:46:20.375Z,5.00
2023-02-01T05:48:47.272Z,5.10
2023-02-01T05:51:14.359Z,5.10
2023-02-01T05:53:41.267Z,5.00
2023-02-01T05:56:08.544Z,5.10
2023-02-01T05:58:35.676Z,5.10
2023-02-01T06:01:04.458Z,5.10
2023-02-01T06:03:31.544Z,5.00
2023-02-01T06:05:58.601Z,5.10
2023-02-01T06:08:26.749Z,5.10
2023-02-01T06:11:00.204Z,5.10
2023-02-01T06:13:27.299Z,5.10
2023-02-01T06:15:54.788Z,5.10
2023-02-01T06:18:21.681Z,5.10
2023-02-01T06:20:54.484Z,5.10
2023-02-01T06:23:24.815Z,5.10
2023-02-01T06:25:53.197Z,5.20
2023-02-01T06:28:20.315Z,5.10
2023-02-01T06:30:47.297Z,5.10
2023-02-01T06:33:16.076Z,5.10
2023-02-01T06:35:46.566Z,5.10
2023-02-01T06:38:13.705Z,5.10
2023-02-01T06:40:42.075Z,5.10
2023-02-01T06:43:09.141Z,5.00
2023-02-01T06:45:36.209Z,5.00
2023-02-01T06:48:03.172Z,5.00
2023-02-01T06:50:30.093Z,5.00
2023-02-01T06:52:56.952Z,5.00
2023-02-01T06:55:23.897Z,5.00
2023-02-01T06:57:55.212Z,5.00
2023-02-01T07:00:23.576Z,5.00
2023-02-01T07:02:51.483Z,5.00
2023-02-01T07:05:18.339Z,5.00
2023-02-01T07:07:45.717Z,5.00
2023-02-01T07:10:12.623Z,5.00
2023-02-01T07:12:39.920Z,5.00
2023-02-01T07:15:07.670Z,5.10
2023-02-01T07:17:34.599Z,5.10
2023-02-01T07:20:02.513Z,5.10
2023-02-01T07:22:30.211Z,5.10
2023-02-01T07:24:57.175Z,5.10
2023-02-01T07:27:25.924Z,5.10
2023-02-01T07:29:53.503Z,5.10
2023-02-01T07:32:20.392Z,5.10
2023-02-01T07:34:47.350Z,5.00
2023-02-01T07:37:14.326Z,5.10
2023-02-01T07:39:41.188Z,5.10
2023-02-01T07:42:08.127Z,5.20
2023-02-01T07:44:35.020Z,5.20
2023-02-01T07:47:02.006Z,5.20
2023-02-01T07:49:28.940Z,5.20
2023-02-01T07:51:56.009Z,5.30
2023-02-01T07:54:22.975Z,5.30
2023-02-01T07:56:50.007Z,5.30
2023-02-01T07:59:17.057Z,5.40
2023-02-01T08:01:44.256Z,5.50
2023-02-01T08:04:13.517Z,5.50
2023-02-01T08:06:41.085Z,5.60
2023-02-01T08:09:09.240Z,5.70
2023-02-01T08:11:38.774Z,5.70
2023-02-01T08:14:06.260Z,5.70
2023-02-01T08:16:35.160Z,5.80
2023-02-01T08:19:02.668Z,5.80
2023-02-01T08:21:37.927Z,5.90
2023-02-01T08:24:10.175Z,5.90
2023-02-01T08:26:37.261Z,5.90
2023-02-01T08:29:07.112Z,6.00
2023-02-01T08:31:34.222Z,6.00
2023-02-01T08:34:04.600Z,6.00
2023-02-01T08:36:31.951Z,6.00
2023-02-01T08:38:59.127Z,6.00
2023-02-01T08:41:28.707Z,6.10
2023-02-01T08:43:56.473Z,6.10
2023-02-01T08:46:24.878Z,6.10
2023-02-01T08:48:52.204Z,6.20
2023-02-01T08:51:21.424Z,6.20
2023-02-01T08:53:48.711Z,6.30
2023-02-01T08:56:19.908Z,6.30
2023-02-01T08:58:46.944Z,6.30
2023-02-01T09:01:18.153Z,6.30
2023-02-01T09:03:45.319Z,6.30
2023-02-01T09:06:15.400Z,6.40
2023-02-01T09:08:42.776Z,6.40
2023-02-01T09:11:17.006Z,6.40
2023-02-01T09:13:44.151Z,6.40
2023-02-01T09:16:11.121Z,6.50
2023-02-01T09:18:45.880Z,6.50
2023-02-01T09:21:22.645Z,6.50
2023-02-01T09:23:51.231Z,6.50
2023-02-01T09:26:19.798Z,6.50
2023-02-01T09:28:49.755Z,6.60
2023-02-01T09:31:16.723Z,6.70
2023-02-01T09:33:43.544Z,6.70
2023-02-01T09:36:10.404Z,6.80
2023-02-01T09:38:41.735Z,6.90
2023-02-01T09:41:46.825Z,6.90
2023-02-01T09:44:42.499Z,7.10
2023-02-01T09:47:19.539Z,7.10
2023-02-01T09:50:06.572Z,7.20
2023-02-01T09:52:44.095Z,7.20
2023-02-01T09:55:21.446Z,7.30
2023-02-01T09:58:17.643Z,7.30
2023-02-01T10:00:59.080Z,7.40
2023-02-01T10:03:31.750Z,7.40
2023-02-01T10:06:04.141Z,7.50
2023-02-01T10:08:54.606Z,7.60
2023-02-01T10:11:29.485Z,7.70
2023-02-01T10:14:10.927Z,7.80
2023-02-01T10:16:59.156Z,7.90
2023-02-01T10:19:58.896Z,8.10
2023-02-01T10:25:41.060Z,8.10
2023-02-01T10:28:14.616Z,8.40
2023-02-01T10:30:47.616Z,8.50
2023-02-01T10:33:19.151Z,8.80
2023-02-01T10:35:47.402Z,8.80
2023-02-01T10:38:28.943Z,8.80
2023-02-01T10:41:02.691Z,9.20
2023-02-01T10:43:30.183Z,9.40
2023-02-01T10:45:57.908Z,9.60
2023-02-01T10:48:24.922Z,9.80
2023-02-01T10:51:08.333Z,9.70
2023-02-01T10:53:38.305Z,9.80
2023-02-01T10:56:10.199Z,9.80
2023-02-01T10:58:44.094Z,9.80
2023-02-01T11:01:20.109Z,9.80
2023-02-01T11:04:09.750Z,9.70
2023-02-01T11:06:42.304Z,9.70
2023-02-01T11:09:09.155Z,9.80
2023-02-01T11:11:48.206Z,9.70
2023-02-01T11:14:25.526Z,9.60
2023-02-01T11:17:20.657Z,9.70
2023-02-01T11:20:02.768Z,9.80
2023-02-01T11:22:30.740Z,9.70
2023-02-01T11:24:59.590Z,9.50
2023-02-01T11:27:28.196Z,9.50
2023-02-01T11:30:02.640Z,9.50
2023-02-01T11:32:29.888Z,9.50
2023-02-01T11:34:58.717Z,9.40
2023-02-01T11:37:37.534Z,9.40
2023-02-01T11:40:34.147Z,9.50
2023-02-01T11:43:24.904Z,9.40
2023-02-01T11:46:03.517Z,9.50
2023-02-01T11:48:37.189Z,9.50
2023-02-01T11:51:24.337Z,9.40
2023-02-01T11:54:00.415Z,9.40
2023-02-01T11:56:47.659Z,9.50
2023-02-01T11:59:14.839Z,9.50
2023-02-01T12:02:00.413Z,9.40
2023-02-01T12:04:56.210Z,9.50
2023-02-01T12:07:42.057Z,9.50
2023-02-01T12:10:18.111Z,9.50
2023-02-01T12:12:47.789Z,9.50
2023-02-01T12:15:59.712Z,9.50
2023-02-01T12:18:44.207Z,9.60
2023-02-01T12:21:32.258Z,9.70
2023-02-01T12:24:17.219Z,9.70
2023-02-01T12:27:20.830Z,9.50
2023-02-01T12:30:15.480Z,9.60
2023-02-01T12:33:12.920Z,9.70
2023-02-01T12:35:42.710Z,9.70
2023-02-01T12:38:37.716Z,9.60
2023-02-01T12:41:16.489Z,9.60
2023-02-01T12:44:08.051Z,9.50
2023-02-01T12:46:41.551Z,9.50
2023-02-01T12:49:16.760Z,9.50
2023-02-01T12:51:47.937Z,9.50
2023-02-01T12:54:27.530Z,9.50
2023-02-01T12:57:04.163Z,9.50
2023-02-01T12:59:55.118Z,9.60
2023-02-01T13:02:45.216Z,9.60
2023-02-01T13:05:26.149Z,9.60
2023-02-01T13:08:12.766Z,9.60
2023-02-01T13:10:52.523Z,9.60
2023-02-01T13:14:04.413Z,9.70
2023-02-01T13:16:46.533Z,9.70
2023-02-01T13:19:31.507Z,9.60
2023-02-01T13:22:13.046Z,9.70
2023-02-01T13:24:43.995Z,9.70
2023-02-01T13:27:16.259Z,9.60
2023-02-01T13:30:08.382Z,9.70
2023-02-01T13:33:18.251Z,9.70
2023-02-01T13:35:54.930Z,9.60
2023-02-01T13:39:07.119Z,9.60
2023-02-01T13:41:43.964Z,9.60
2023-02-01T13:44:25.318Z,9.60
2023-02-01T13:46:57.355Z,9.60
2023-02-01T13:49:29.420Z,9.60
2023-02-01T13:51:58.533Z,9.60
2023-02-01T13:54:36.104Z,9.60
2023-02-01T13:57:05.586Z,9.60
2023-02-01T13:59:52.420Z,9.60
2023-02-01T14:02:37.766Z,9.50
2023-02-01T14:05:08.942Z,9.50
2023-02-01T14:07:35.864Z,9.50
2023-02-01T14:10:41.559Z,9.60
2023-02-01T14:13:23.609Z,9.50
2023-02-01T14:16:17.708Z,9.60
2023-02-01T14:18:47.242Z,9.50
2023-02-01T14:21:23.766Z,9.50
2023-02-01T14:24:09.057Z,9.50
2023-02-01T14:26:36.070Z,9.40
2023-02-01T14:29:03.061Z,9.40
2023-02-01T14:31:45.045Z,9.40
2023-02-01T14:34:44.065Z,9.40
2023-02-01T14:37:19.712Z,9.40
2023-02-01T14:39:46.563Z,9.40
2023-02-01T14:42:43.622Z,9.30
2023-02-01T14:45:26.270Z,9.30
2023-02-01T14:48:16.466Z,9.30
2023-02-01T14:50:47.565Z,9.30
2023-02-01T14:53:20.079Z,9.20
2023-02-01T14:56:02.805Z,9.20
2023-02-01T14:58:42.377Z,9.20
2023-02-01T15:01:36.153Z,9.20
2023-02-01T15:04:06.835Z,9.20
2023-02-01T15:06:41.424Z,9.10
2023-02-01T15:09:35.350Z,9.20
2023-02-01T15:12:11.343Z,9.10
2023-02-01T15:14:43.865Z,9.10
2023-02-01T15:17:43.417Z,9.10
2023-02-01T15:20:17.165Z,9.00
2023-02-01T15:23:06.602Z,9.00
2023-02-01T15:25:38.046Z,9.00
2023-02-01T15:28:04.302Z,9.50
2023-02-01T15:28:07.012Z,9.00
2023-02-01T15:30:34.428Z,9.40
2023-02-01T15:30:36.034Z,9.00
2023-02-01T15:33:10.695Z,9.40
2023-02-01T15:33:15.356Z,9.00
2023-02-01T15:35:44.498Z,9.40
2023-02-01T15:35:45.072Z,9.00
2023-02-01T15:38:30.754Z,9.00
2023-02-01T15:38:36.633Z,9.50
2023-02-01T15:41:11.940Z,9.50
2023-02-01T15:41:16.440Z,9.00
2023-02-01T15:43:43.975Z,9.40
2023-02-01T15:43:49.429Z,9.00
2023-02-01T15:46:15.911Z,9.40
2023-02-01T15:46:22.162Z,9.00
2023-02-01T15:48:49.460Z,9.40
2023-02-01T15:48:54.592Z,9.00
2023-02-01T15:51:20.946Z,9.40
2023-02-01T15:51:28.722Z,8.90
2023-02-01T15:53:55.318Z,9.40
2023-02-01T15:54:04.935Z,8.90
2023-02-01T15:56:31.818Z,9.40
2023-02-01T15:56:37.340Z,8.90
2023-02-01T15:59:03.665Z,9.30
2023-02-01T15:59:13.732Z,8.90
2023-02-01T16:01:32.145Z,9.20
2023-02-01T16:01:43.154Z,8.90
2023-02-01T16:04:17.421Z,9.10
2023-02-01T16:04:22.300Z,8.90
2023-02-01T16:06:51.477Z,9.10
2023-02-01T16:06:53.718Z,8.90
2023-02-01T16:09:21.151Z,9.00
2023-02-01T16:09:28.369Z,8.90
2023-02-01T16:11:55.216Z,8.90
2023-02-01T16:11:57.997Z,8.90
2023-02-01T16:14:23.270Z,8.90
2023-02-01T16:14:28.129Z,8.90
2023-02-01T16:16:51.200Z,8.90
2023-02-01T16:16:59.024Z,9.00
2023-02-01T16:19:18.115Z,8.90
2023-02-01T16:19:29.271Z,8.90
2023-02-01T16:21:45.080Z,8.90
2023-02-01T16:21:59.263Z,9.00
2023-02-01T16:24:12.124Z,8.90
2023-02-01T16:24:27.516Z,9.00
2023-02-01T16:26:39.400Z,8.90
2023-02-01T16:26:55.709Z,9.00
2023-02-01T16:29:09.407Z,8.80
2023-02-01T16:29:23.880Z,9.00
2023-02-01T16:31:40.799Z,8.90
2023-02-01T16:31:54.143Z,9.00
2023-02-01T16:34:14.371Z,8.80
2023-02-01T16:34:22.351Z,9.00
2023-02-01T16:36:41.793Z,8.80
2023-02-01T16:36:52.983Z,9.00
2023-02-01T16:39:14.135Z,8.90
2023-02-01T16:39:21.431Z,9.00
2023-02-01T16:41:41.743Z,8.90
2023-02-01T16:41:49.737Z,9.00
2023-02-01T16:44:08.584Z,8.90
2023-02-01T16:44:17.923Z,9.00
2023-02-01T16:46:40.447Z,8.90
2023-02-01T16:46:48.061Z,9.00
2023-02-01T16:49:16.825Z,8.90
2023-02-01T16:49:21.959Z,9.00
2023-02-01T16:51:43.856Z,8.90
2023-02-01T16:51:53.801Z,8.90
2023-02-01T16:54:11.341Z,8.90
2023-02-01T16:54:21.998Z,8.90
2023-02-01T16:56:41.452Z,8.90
2023-02-01T16:56:50.461Z,8.80
2023-02-01T16:59:09.638Z,9.10
2023-02-01T16:59:18.554Z,8.90
2023-02-01T17:01:38.590Z,8.90
2023-02-01T17:01:46.643Z,8.90
2023-02-01T17:04:05.607Z,8.90
2023-02-01T17:04:14.772Z,8.90
2023-02-01T17:06:33.651Z,8.90
2023-02-01T17:06:48.162Z,8.90
2023-02-01T17:09:03.231Z,8.90
2023-02-01T17:09:16.453Z,8.90
2023-02-01T17:11:33.375Z,8.90
2023-02-01T17:11:44.697Z,8.90
2023-02-01T17:14:17.889Z,8.90
2023-02-01T17:14:31.315Z,8.90
2023-02-01T17:16:47.791Z,8.90
2023-02-01T17:16:59.155Z,8.90
2023-02-01T17:19:19.050Z,8.80
2023-02-01T17:19:26.077Z,8.80
2023-02-01T17:21:52.707Z,8.80
2023-02-01T17:22:00.071Z,8.80
2023-02-01T17:24:23.192Z,8.80
2023-02-01T17:24:42.379Z,8.80
2023-02-01T17:26:52.344Z,8.80
2023-02-01T17:27:15.869Z,8.80
2023-02-01T17:29:21.215Z,8.70
2023-02-01T17:29:43.747Z,8.80
2023-02-01T17:31:52.002Z,8.80
2023-02-01T17:32:20.018Z,8.90
2023-02-01T17:34:20.480Z,8.70
2023-02-01T17:34:46.853Z,8.90
2023-02-01T17:36:50.536Z,8.70
2023-02-01T17:37:32.433Z,8.90
2023-02-01T17:39:33.607Z,8.70
2023-02-01T17:39:59.999Z,8.90
2023-02-01T17:42:02.633Z,8.60
2023-02-01T17:42:29.388Z,8.90
2023-02-01T17:44:30.899Z,8.60
2023-02-01T17:45:06.396Z,8.80
2023-02-01T17:46:59.730Z,8.50
2023-02-01T17:47:34.011Z,8.90
2023-02-01T17:49:29.611Z,8.50
2023-02-01T17:50:00.769Z,8.90
2023-02-01T17:51:59.414Z,8.50
2023-02-01T17:52:29.224Z,8.90
2023-02-01T17:54:27.507Z,8.50
2023-02-01T17:54:56.210Z,8.90
2023-02-01T17:56:56.546Z,8.50
2023-02-01T17:57:23.118Z,8.90
2023-02-01T17:59:24.723Z,8.60
2023-02-01T17:59:50.079Z,8.90
2023-02-01T18:01:53.213Z,8.60
2023-02-01T18:02:22.747Z,8.90
2023-02-01T18:04:22.264Z,8.60
2023-02-01T18:04:50.640Z,8.90
2023-02-01T18:06:50.365Z,8.60
2023-02-01T18:07:18.047Z,8.90
2023-02-01T18:09:19.806Z,8.60
2023-02-01T18:09:44.895Z,8.90
2023-02-01T18:11:49.279Z,8.50
2023-02-01T18:12:23.535Z,8.90
2023-02-01T18:14:17.370Z,8.50
2023-02-01T18:14:50.464Z,8.90
2023-02-01T18:16:45.854Z,8.50
2023-02-01T18:17:17.361Z,8.80
2023-02-01T18:19:13.979Z,8.50
2023-02-01T18:19:44.355Z,8.90
2023-02-01T18:21:44.134Z,8.50
2023-02-01T18:22:23.736Z,8.90
2023-02-01T18:24:14.646Z,8.50
2023-02-01T18:24:50.572Z,8.90
2023-02-01T18:26:44.897Z,8.60
2023-02-01T18:27:17.393Z,8.90
2023-02-01T18:29:13.421Z,8.60
2023-02-01T18:29:44.219Z,8.90
2023-02-01T18:31:46.671Z,8.70
2023-02-01T18:32:11.227Z,8.90
2023-02-01T18:34:21.379Z,8.60
2023-02-01T18:34:38.121Z,8.80
2023-02-01T18:36:49.638Z,8.60
2023-02-01T18:37:04.954Z,8.80
2023-02-01T18:39:17.901Z,8.70
2023-02-01T18:39:31.864Z,8.80
2023-02-01T18:41:49.584Z,8.70
2023-02-01T18:41:59.239Z,8.80
2023-02-01T18:44:18.403Z,8.70
2023-02-01T18:44:26.095Z,8.80
2023-02-01T18:46:46.481Z,8.70
2023-02-01T18:46:52.927Z,8.80
2023-02-01T18:49:18.071Z,8.70
2023-02-01T18:49:19.886Z,8.80
2023-02-01T18:51:47.037Z,8.70
2023-02-01T18:51:47.136Z,8.80
2023-02-01T18:54:14.097Z,8.80
2023-02-01T18:54:15.344Z,8.70
2023-02-01T18:56:41.033Z,8.80
2023-02-01T18:56:43.980Z,8.80
2023-02-01T18:59:08.686Z,8.80
2023-02-01T18:59:13.554Z,8.70
2023-02-01T19:01:35.771Z,8.80
2023-02-01T19:01:41.697Z,8.70
2023-02-01T19:04:14.072Z,8.80
2023-02-01T19:04:20.122Z,8.80
2023-02-01T19:06:51.852Z,8.80
2023-02-01T19:06:53.095Z,8.80
2023-02-01T19:09:18.714Z,8.80
2023-02-01T19:09:21.447Z,8.70
2023-02-01T19:11:45.519Z,8.80
2023-02-01T19:11:49.607Z,8.80
2023-02-01T19:14:12.469Z,8.90
2023-02-01T19:14:19.113Z,8.70
2023-02-01T19:16:39.993Z,8.90
2023-02-01T19:16:47.200Z,8.70
2023-02-01T19:19:06.999Z,8.80
2023-02-01T19:19:15.335Z,8.70
2023-02-01T19:21:33.959Z,8.80
2023-02-01T19:21:43.468Z,8.70
2023-02-01T19:24:00.847Z,8.80
2023-02-01T19:24:11.537Z,8.70
2023-02-01T19:26:27.732Z,8.80
2023-02-01T19:26:42.477Z,8.70
2023-02-01T19:28:54.662Z,8.80
2023-02-01T19:29:10.706Z,8.60
2023-02-01T19:31:21.721Z,8.80
2023-02-01T19:31:40.191Z,8.70
2023-02-01T19:33:48.661Z,8.80
2023-02-01T19:34:08.571Z,8.70
2023-02-01T19:36:15.598Z,8.80
2023-02-01T19:36:42.438Z,8.70
2023-02-01T19:38:42.491Z,8.80
2023-02-01T19:39:11.298Z,8.70
2023-02-01T19:41:09.251Z,8.80
2023-02-01T19:41:39.408Z,8.70
2023-02-01T19:43:37.088Z,8.80
2023-02-01T19:44:07.518Z,8.70
2023-02-01T19:46:04.465Z,8.80
2023-02-01T19:46:35.652Z,8.60
2023-02-01T19:48:31.887Z,8.80
2023-02-01T19:49:07.835Z,8.60
2023-02-01T19:50:59.214Z,8.80
2023-02-01T19:51:36.122Z,8.50
2023-02-01T19:53:27.962Z,8.80
2023-02-01T19:54:04.431Z,8.60
2023-02-01T19:55:58.651Z,8.80
2023-02-01T19:56:32.559Z,8.60
2023-02-01T19:58:26.308Z,8.80
2023-02-01T19:59:00.668Z,8.60
2023-02-01T20:00:56.569Z,8.80
2023-02-01T20:01:27.941Z,8.70
2023-02-01T20:03:23.952Z,8.80
2023-02-01T20:04:01.599Z,8.70
2023-02-01T20:05:52.385Z,8.80
2023-02-01T20:06:32.387Z,8.70
2023-02-01T20:08:19.378Z,8.80
2023-02-01T20:09:00.537Z,8.70
2023-02-01T20:10:46.333Z,8.70
2023-02-01T20:11:28.730Z,8.70
2023-02-01T20:13:13.782Z,8.80
2023-02-01T20:14:00.036Z,8.60
2023-02-01T20:15:42.182Z,8.70
2023-02-01T20:16:28.555Z,8.60
2023-02-01T20:18:10.266Z,8.70
2023-02-01T20:18:56.851Z,8.60
2023-02-01T20:20:37.288Z,8.70
2023-02-01T20:21:24.915Z,8.50
2023-02-01T20:23:04.186Z,8.70
2023-02-01T20:23:54.363Z,8.40
2023-02-01T20:25:31.833Z,8.70
2023-02-01T20:26:24.755Z,8.50
2023-02-01T20:27:58.910Z,8.80
2023-02-01T20:28:53.515Z,8.50
2023-02-01T20:30:26.041Z,8.80
2023-02-01T20:31:21.725Z,8.50
2023-02-01T20:32:52.879Z,8.70
2023-02-01T20:33:49.832Z,8.60
2023-02-01T20:35:19.814Z,8.70
2023-02-01T20:36:18.014Z,8.60
2023-02-01T20:37:46.860Z,8.70
2023-02-01T20:38:46.104Z,8.60
2023-02-01T20:40:13.895Z,8.70
2023-02-01T20:41:15.608Z,8.50
2023-02-01T20:42:41.671Z,8.80
2023-02-01T20:43:43.657Z,8.50
2023-02-01T20:45:09.082Z,8.80
2023-02-01T20:46:11.806Z,8.50
2023-02-01T20:47:36.252Z,8.80
2023-02-01T20:48:44.113Z,8.50
2023-02-01T20:50:03.838Z,8.70
2023-02-01T20:51:13.522Z,8.50
2023-02-01T20:52:30.691Z,8.70
2023-02-01T20:53:42.041Z,8.50
2023-02-01T20:54:57.551Z,8.80
2023-02-01T20:56:12.845Z,8.50
2023-02-01T20:57:24.773Z,8.70
2023-02-01T20:58:42.896Z,8.50
2023-02-01T20:59:54.179Z,8.70
2023-02-01T21:01:11.368Z,8.50
2023-02-01T21:02:21.051Z,8.70
2023-02-01T21:03:39.855Z,8.40
2023-02-01T21:04:49.327Z,8.70
2023-02-01T21:06:09.088Z,8.50
2023-02-01T21:07:16.163Z,8.70
2023-02-01T21:08:37.249Z,8.40
2023-02-01T21:09:43.358Z,8.70
2023-02-01T21:11:07.920Z,8.50
2023-02-01T21:12:10.335Z,8.80
2023-02-01T21:13:40.594Z,8.50
2023-02-01T21:14:37.203Z,8.80
2023-02-01T21:16:12.079Z,8.40
2023-02-01T21:17:06.502Z,8.70
2023-02-01T21:18:40.366Z,8.40
2023-02-01T21:19:43.182Z,8.70
2023-02-01T21:21:10.114Z,8.40
2023-02-01T21:22:14.836Z,8.80
2023-02-01T21:23:44.758Z,8.50
2023-02-01T21:24:42.512Z,8.80
2023-02-01T21:26:13.546Z,8.50
2023-02-01T21:27:10.634Z,8.80
2023-02-01T21:28:41.835Z,8.50
2023-02-01T21:29:37.555Z,8.80
2023-02-01T21:31:11.487Z,8.60
2023-02-01T21:32:06.696Z,8.80
2023-02-01T21:33:40.242Z,8.60
2023-02-01T21:34:34.678Z,8.80
2023-02-01T21:36:08.984Z,8.60
2023-02-01T21:37:01.864Z,8.80
2023-02-01T21:38:37.385Z,8.60
2023-02-01T21:39:29.187Z,8.90
2023-02-01T21:41:23.088Z,8.70
2023-02-01T21:42:14.962Z,8.80
2023-02-01T21:43:51.319Z,8.70
2023-02-01T21:44:42.470Z,8.80
2023-02-01T21:46:20.771Z,8.70
2023-02-01T21:47:11.051Z,8.80
2023-02-01T21:49:04.937Z,8.70
2023-02-01T21:49:37.904Z,8.80
2023-02-01T21:51:37.822Z,8.70
2023-02-01T21:52:05.634Z,8.80
2023-02-01T21:54:06.360Z,8.70
2023-02-01T21:54:32.459Z,8.90
2023-02-01T21:56:34.560Z,8.70
2023-02-01T21:56:59.427Z,8.90
2023-02-01T21:59:02.745Z,8.70
2023-02-01T21:59:26.272Z,8.90
2023-02-01T22:01:32.312Z,8.60
2023-02-01T22:01:53.245Z,8.90
2023-02-01T22:04:00.487Z,8.60
2023-02-01T22:04:20.096Z,8.90
2023-02-01T22:06:30.320Z,8.60
2023-02-01T22:06:46.953Z,8.90
2023-02-01T22:08:58.877Z,8.60
2023-02-01T22:09:23.811Z,9.00
2023-02-01T22:11:26.993Z,8.60
2023-02-01T22:11:51.868Z,9.00
2023-02-01T22:13:55.098Z,8.60
2023-02-01T22:14:19.089Z,9.00
2023-02-01T22:16:23.751Z,8.60
2023-02-01T22:16:46.588Z,9.10
2023-02-01T22:18:54.115Z,8.60
2023-02-01T22:19:14.111Z,9.00
2023-02-01T22:21:23.958Z,8.50
2023-02-01T22:21:42.301Z,9.10
2023-02-01T22:23:54.203Z,8.50
2023-02-01T22:24:11.157Z,9.10
2023-02-01T22:26:23.287Z,8.50
2023-02-01T22:26:38.528Z,9.10
2023-02-01T22:28:51.486Z,8.50
2023-02-01T22:29:06.116Z,9.10
2023-02-01T22:31:20.652Z,8.50
2023-02-01T22:31:33.126Z,9.10
2023-02-01T22:33:49.830Z,8.40
2023-02-01T22:34:00.278Z,9.00
2023-02-01T22:36:19.937Z,8.50
2023-02-01T22:36:27.269Z,9.10
2023-02-01T22:38:49.556Z,8.50
2023-02-01T22:38:54.359Z,9.10
2023-02-01T22:41:17.862Z,8.60
2023-02-01T22:41:21.308Z,9.00
2023-02-01T22:43:46.405Z,8.60
2023-02-01T22:43:48.161Z,9.10
2023-02-01T22:46:18.239Z,8.60
2023-02-01T22:46:19.776Z,9.00
2023-02-01T22:48:48.132Z,8.60
2023-02-01T22:48:50.239Z,9.10
2023-02-01T22:51:20.348Z,8.60
2023-02-01T22:51:21.074Z,9.00
2023-02-01T22:53:48.316Z,9.00
2023-02-01T22:53:48.477Z,8.60
2023-02-01T22:56:16.940Z,9.00
2023-02-01T22:56:17.241Z,8.60
2023-02-01T22:58:43.947Z,9.00
2023-02-01T22:58:45.605Z,8.60
2023-02-01T23:01:16.247Z,8.60
2023-02-01T23:01:16.828Z,9.00
2023-02-01T23:03:43.693Z,9.00
2023-02-01T23:03:44.608Z,8.60
2023-02-01T23:06:10.694Z,9.00
2023-02-01T23:06:14.075Z,8.60
2023-02-01T23:08:40.542Z,9.00
2023-02-01T23:08:43.523Z,8.50
2023-02-01T23:11:09.925Z,9.00
2023-02-01T23:11:11.936Z,8.50
2023-02-01T23:13:39.060Z,9.00
2023-02-01T23:16:08.564Z,9.00
2023-02-01T23:18:36.081Z,9.00
2023-02-01T23:21:08.787Z,9.00
2023-02-01T23:23:37.582Z,9.00
2023-02-01T23:26:05.031Z,9.00
2023-02-01T23:28:32.459Z,9.00
2023-02-01T23:30:59.683Z,9.00
2023-02-01T23:33:27.680Z,9.00
2023-02-01T23:35:59.651Z,9.00
2023-02-01T23:38:27.579Z,9.00
2023-02-01T23:41:05.984Z,9.00
2023-02-01T23:43:52.019Z,9.00
2023-02-01T23:46:19.577Z,9.00
2023-02-01T23:48:48.221Z,9.10
2023-02-01T23:51:15.929Z,9.00
2023-02-01T23:53:44.925Z,9.00
2023-02-01T23:56:20.713Z,9.00
2023-02-01T23:58:48.448Z,9.00
